Accueil
METAR-TAF:

METAR-TAF

Aéroports :

Aéroport international de Genève

Genève, Suisse

latitude: 46-15N, longitude: 006-08E, altitude: 420 m

Observation

Le bulletin a été fait il y a 35 minutes, à 17:50 UTC
Vent 6 kt de nord, variant entre ouest/nord-ouest et nord-est
Température 19°C
Humidité 43%
Pression 1016 hPa
Visibilité 10 km ou plus
Nuages épars à une hauteur de 6000 ft

METAR: LSGG 121750Z AUTO 36006KT 300V040 9999 SCT060 19/06 Q1016 NOSIG

Heure: 20:25 (18:25 UTC)

Prévision

Le bulletin a été fait il y a 1 heure et 0 minutes, à 17:25 UTC
Prévision valable du 12 à 18 UTC au 13 à 24 UTC
Vent 2 kt de direction variable
Visibilité 10 km ou plus
Quelques nuages à une hauteur de 6000 ft
Evoluant progressivement
du 13 à 10 UTC au 13 à 12 UTC
Vent 8 kt de nord-est

TAF: LSGG 121725Z 1218/1324 VRB02KT 9999 FEW060 TX21/1315Z TN09/1304Z BECMG 1310/1312 04008KT

Observations et prévisions météorologiques de plus de 4000 aéroports (messages METAR et TAF).

Les stations disponibles sont représentées par des disques jaunes et rouges sur la carte.

Passer la souris dessus pour voir le nom de la station.

Cliquer dessus pour voir les observations et prévisions météorologiques.

Pour changer de carte: cliquez sur les boutons verts avec une croix noire pour zoomer, sur le bouton vert avec un tiret pour effectuer un zoom arrière, ou sur les flèches vertes pour les cartes adjacentes.


METAR-TAF: